Time;durP1;ratioP1;P1;durP2;ratioP2;P2;SDS_P1;SDS_P2;PMS_P1;PMS_P2;Temp;Humidity;BMP_temperature;BMP_pressure;BME280_temperature;BME280_humidity;BME280_pressure;Samples;Min_cycle;Max_cycle;Signal;HPM_P1;HPM_P2
2023/05/08 00:00:37;;;;;;;16.85;13.70;;;;;;;;;;5050162;28;20033;-60
2023/05/08 00:03:03;;;;;;;17.90;14.23;;;;;;;;;;5067725;28;20025;-61
2023/05/08 00:05:29;;;;;;;18.10;13.70;;;;;;;;;;5067189;28;20052;-61
2023/05/08 00:08:00;;;;;;;17.95;13.82;;;;;;;;;;5068957;28;20059;-60
2023/05/08 00:10:26;;;;;;;16.90;13.13;;;;;;;;;;5053941;28;20437;-60
2023/05/08 00:12:51;;;;;;;16.10;13.10;;;;;;;;;;5070742;28;20469;-60
2023/05/08 00:15:17;;;;;;;16.88;13.23;;;;;;;;;;5052298;28;20043;-62
2023/05/08 00:17:42;;;;;;;19.45;14.18;;;;;;;;;;5065410;28;20025;-62
2023/05/08 00:20:08;;;;;;;15.68;12.88;;;;;;;;;;5058656;28;20044;-61
2023/05/08 00:22:34;;;;;;;16.58;13.18;;;;;;;;;;5053093;28;20241;-61
2023/05/08 00:24:59;;;;;;;17.88;13.48;;;;;;;;;;5052859;28;20103;-61
2023/05/08 00:27:25;;;;;;;18.60;14.02;;;;;;;;;;5051497;28;20385;-61
2023/05/08 00:29:50;;;;;;;18.52;13.88;;;;;;;;;;5068774;28;20116;-61
2023/05/08 00:32:16;;;;;;;18.75;14.18;;;;;;;;;;5068242;28;20032;-61
2023/05/08 00:34:41;;;;;;;17.48;14.02;;;;;;;;;;5058764;28;20025;-61
2023/05/08 00:37:07;;;;;;;19.25;13.77;;;;;;;;;;5074246;28;20122;-61
2023/05/08 00:39:32;;;;;;;17.55;13.48;;;;;;;;;;5057552;28;20040;-61
2023/05/08 00:41:58;;;;;;;18.10;13.75;;;;;;;;;;5054313;28;20309;-61
2023/05/08 00:44:23;;;;;;;19.33;14.00;;;;;;;;;;5069282;28;20036;-61
2023/05/08 00:46:49;;;;;;;17.88;13.85;;;;;;;;;;5073457;28;20119;-61
2023/05/08 00:49:15;;;;;;;18.67;13.75;;;;;;;;;;5073057;28;20024;-60
2023/05/08 00:51:44;;;;;;;17.67;14.40;;;;;;;;;;5060387;28;20427;-62
2023/05/08 00:54:10;;;;;;;17.63;14.07;;;;;;;;;;5074842;28;20385;-62
2023/05/08 00:56:36;;;;;;;19.10;14.48;;;;;;;;;;5056905;28;20539;-62
2023/05/08 00:59:05;;;;;;;18.25;14.50;;;;;;;;;;5055086;28;20438;-62
2023/05/08 01:01:32;;;;;;;20.77;14.60;;;;;;;;;;5063520;28;20033;-62
2023/05/08 01:03:58;;;;;;;20.67;15.10;;;;;;;;;;5070594;28;20221;-61
2023/05/08 01:06:23;;;;;;;21.40;15.93;;;;;;;;;;5059131;28;20476;-61
2023/05/08 01:08:48;;;;;;;19.00;14.70;;;;;;;;;;5053065;28;20029;-60
2023/05/08 01:11:30;;;;;;;20.13;15.27;;;;;;;;;;5054005;28;20546;-61
2023/05/08 01:14:14;;;;;;;20.00;15.68;;;;;;;;;;5053848;28;20043;-61
2023/05/08 01:17:02;;;;;;;20.60;14.95;;;;;;;;;;5067928;28;20534;-60
2023/05/08 01:20:00;;;;;;;18.13;14.65;;;;;;;;;;5057179;28;20041;-60
2023/05/08 01:22:56;;;;;;;19.52;14.55;;;;;;;;;;5011522;28;20050;-61
2023/05/08 01:25:49;;;;;;;18.13;14.88;;;;;;;;;;5054111;28;20032;-60
2023/05/08 01:28:33;;;;;;;18.75;14.93;;;;;;;;;;5053999;28;20024;-61
2023/05/08 01:31:16;;;;;;;19.73;14.75;;;;;;;;;;5059688;28;20043;-66
2023/05/08 01:33:50;;;;;;;18.77;14.75;;;;;;;;;;5073528;28;20457;-60
2023/05/08 01:36:18;;;;;;;19.30;14.50;;;;;;;;;;5052552;28;20037;-60
2023/05/08 01:38:59;;;;;;;19.13;14.88;;;;;;;;;;5070363;28;20048;-62
2023/05/08 01:41:29;;;;;;;18.02;14.90;;;;;;;;;;5073966;28;20534;-62
2023/05/08 01:44:12;;;;;;;18.48;14.95;;;;;;;;;;5060623;28;20069;-61
2023/05/08 01:46:38;;;;;;;18.20;13.95;;;;;;;;;;5054855;28;20067;-62
2023/05/08 01:49:16;;;;;;;18.58;15.07;;;;;;;;;;5063881;28;20068;-61
2023/05/08 01:51:47;;;;;;;18.02;14.10;;;;;;;;;;5063785;28;20082;-61
2023/05/08 01:54:22;;;;;;;17.27;13.95;;;;;;;;;;5073792;28;20025;-61
2023/05/08 01:56:51;;;;;;;17.13;14.05;;;;;;;;;;5054488;28;20120;-60
2023/05/08 01:59:20;;;;;;;16.95;13.77;;;;;;;;;;5065321;28;20427;-60
2023/05/08 02:01:48;;;;;;;17.65;13.98;;;;;;;;;;5057248;28;20037;-61
2023/05/08 02:04:14;;;;;;;18.77;14.60;;;;;;;;;;5052466;28;20029;-61
2023/05/08 02:06:40;;;;;;;22.77;13.88;;;;;;;;;;5055965;28;20039;-62
2023/05/08 02:09:08;;;;;;;22.13;14.88;;;;;;;;;;5071945;28;20051;-62
2023/05/08 02:11:36;;;;;;;17.23;13.98;;;;;;;;;;5056010;28;20458;-60
2023/05/08 02:14:02;;;;;;;20.30;14.98;;;;;;;;;;5060794;28;20088;-61
2023/05/08 02:16:29;;;;;;;18.52;14.50;;;;;;;;;;5069363;28;20040;-61
2023/05/08 02:18:57;;;;;;;16.85;13.60;;;;;;;;;;5054501;28;20108;-61
2023/05/08 02:21:24;;;;;;;20.80;14.50;;;;;;;;;;5059541;28;20039;-61
2023/05/08 02:23:51;;;;;;;19.02;14.65;;;;;;;;;;5067651;28;20056;-61
2023/05/08 02:26:18;;;;;;;17.88;14.43;;;;;;;;;;5068178;28;20098;-61
2023/05/08 02:28:44;;;;;;;18.17;14.68;;;;;;;;;;5055125;28;20469;-61
2023/05/08 02:31:11;;;;;;;20.52;14.75;;;;;;;;;;5070535;28;20068;-61
2023/05/08 02:33:40;;;;;;;19.48;14.75;;;;;;;;;;5062486;28;20095;-61
2023/05/08 02:36:07;;;;;;;20.20;14.55;;;;;;;;;;5052330;28;20417;-62
2023/05/08 02:38:36;;;;;;;19.52;14.35;;;;;;;;;;5066620;28;20048;-61
2023/05/08 02:41:04;;;;;;;18.55;15.30;;;;;;;;;;5062869;28;20033;-62
2023/05/08 02:43:30;;;;;;;21.10;14.73;;;;;;;;;;5054996;28;20370;-61
2023/05/08 02:46:06;;;;;;;19.55;14.02;;;;;;;;;;5057069;28;20040;-61
2023/05/08 02:48:46;;;;;;;18.83;13.80;;;;;;;;;;5055895;28;20033;-61
2023/05/08 02:51:15;;;;;;;18.48;14.40;;;;;;;;;;5053486;28;20488;-62
2023/05/08 02:53:46;;;;;;;19.40;14.07;;;;;;;;;;5052065;28;20037;-61
2023/05/08 02:56:45;;;;;;;18.67;14.35;;;;;;;;;;5057877;28;20040;-61
2023/05/08 02:59:30;;;;;;;20.23;15.05;;;;;;;;;;5059694;28;20136;-61
2023/05/08 03:02:17;;;;;;;20.23;14.77;;;;;;;;;;5052893;28;20481;-61
2023/05/08 03:05:02;;;;;;;21.13;14.93;;;;;;;;;;5066750;28;20037;-61
2023/05/08 03:07:29;;;;;;;20.05;15.15;;;;;;;;;;5059072;28;20055;-61
2023/05/08 03:10:00;;;;;;;20.52;15.07;;;;;;;;;;5050377;28;20041;-61
2023/05/08 03:12:27;;;;;;;18.42;14.52;;;;;;;;;;5051805;28;20032;-61
2023/05/08 03:15:11;;;;;;;19.80;14.73;;;;;;;;;;5049479;28;20040;-61
2023/05/08 03:17:39;;;;;;;19.63;15.02;;;;;;;;;;5062184;28;20040;-61
2023/05/08 03:20:08;;;;;;;19.77;14.32;;;;;;;;;;5056968;28;20166;-60
2023/05/08 03:22:36;;;;;;;22.02;15.85;;;;;;;;;;5060164;28;20028;-62
2023/05/08 03:25:05;;;;;;;19.08;15.00;;;;;;;;;;5058879;28;20029;-63
2023/05/08 03:27:31;;;;;;;23.25;15.35;;;;;;;;;;5059322;28;20029;-62
2023/05/08 03:29:58;;;;;;;19.40;14.43;;;;;;;;;;5064954;28;20044;-61
2023/05/08 03:32:26;;;;;;;20.05;15.15;;;;;;;;;;5060255;28;20040;-63
2023/05/08 03:34:54;;;;;;;18.70;14.77;;;;;;;;;;5055671;28;20029;-62
2023/05/08 03:37:20;;;;;;;21.55;14.98;;;;;;;;;;5062439;28;20060;-62
2023/05/08 03:39:45;;;;;;;18.80;14.85;;;;;;;;;;5051445;28;20037;-62
2023/05/08 03:42:20;;;;;;;19.20;15.23;;;;;;;;;;5050328;28;20458;-62
2023/05/08 03:44:48;;;;;;;21.55;14.77;;;;;;;;;;5062437;28;20024;-61
2023/05/08 03:47:16;;;;;;;18.20;14.93;;;;;;;;;;5062713;28;20047;-62
2023/05/08 03:49:42;;;;;;;18.95;14.43;;;;;;;;;;5055581;28;20464;-62
2023/05/08 03:52:07;;;;;;;18.42;14.15;;;;;;;;;;5066867;28;20044;-62
2023/05/08 03:54:33;;;;;;;18.55;14.82;;;;;;;;;;5052296;28;20041;-61
2023/05/08 03:56:58;;;;;;;19.55;14.98;;;;;;;;;;5052088;28;20032;-61
2023/05/08 03:59:45;;;;;;;20.17;15.77;;;;;;;;;;5050532;28;20116;-61
2023/05/08 04:02:20;;;;;;;20.63;14.73;;;;;;;;;;5050711;28;20252;-61
2023/05/08 04:04:49;;;;;;;18.98;14.63;;;;;;;;;;5053929;28;20029;-61
2023/05/08 04:07:30;;;;;;;20.10;15.55;;;;;;;;;;5055746;28;20061;-61
2023/05/08 04:10:24;;;;;;;22.15;15.50;;;;;;;;;;5054032;28;20037;-61
2023/05/08 04:13:07;;;;;;;19.27;14.85;;;;;;;;;;5056011;28;20032;-61
2023/05/08 04:15:39;;;;;;;20.60;14.88;;;;;;;;;;5055153;28;20032;-61
2023/05/08 04:18:13;;;;;;;20.55;15.55;;;;;;;;;;5066116;28;20523;-61
2023/05/08 04:20:40;;;;;;;20.70;15.70;;;;;;;;;;5071510;28;20122;-61
2023/05/08 04:23:08;;;;;;;20.42;15.73;;;;;;;;;;5062225;28;20473;-61
2023/05/08 04:25:36;;;;;;;21.00;16.20;;;;;;;;;;5055034;28;20107;-61
2023/05/08 04:28:02;;;;;;;20.52;15.50;;;;;;;;;;5070465;28;20393;-61
2023/05/08 04:30:28;;;;;;;20.75;15.50;;;;;;;;;;5071677;28;20032;-61
2023/05/08 04:32:54;;;;;;;20.05;15.18;;;;;;;;;;5069941;28;20033;-61
2023/05/08 04:35:20;;;;;;;21.15;15.60;;;;;;;;;;5069884;28;20020;-61
2023/05/08 04:37:46;;;;;;;19.50;14.88;;;;;;;;;;5056420;28;20053;-63
2023/05/08 04:40:12;;;;;;;20.63;15.52;;;;;;;;;;5055841;28;20179;-63
2023/05/08 04:42:41;;;;;;;23.23;15.45;;;;;;;;;;5062005;28;20425;-63
2023/05/08 04:45:07;;;;;;;19.48;15.20;;;;;;;;;;5050472;28;20470;-62
2023/05/08 04:47:33;;;;;;;21.20;15.75;;;;;;;;;;5051449;28;20033;-62
2023/05/08 04:49:59;;;;;;;23.83;15.95;;;;;;;;;;5063614;28;20028;-63
2023/05/08 04:52:24;;;;;;;22.48;16.13;;;;;;;;;;5071268;28;20047;-62
2023/05/08 04:54:49;;;;;;;20.75;16.13;;;;;;;;;;5071289;28;20117;-63
2023/05/08 04:57:15;;;;;;;21.42;16.40;;;;;;;;;;5070656;28;20052;-62
2023/05/08 04:59:40;;;;;;;20.95;15.13;;;;;;;;;;5071011;28;20059;-63
2023/05/08 05:02:07;;;;;;;20.15;14.73;;;;;;;;;;5070162;28;20373;-63
2023/05/08 05:04:34;;;;;;;17.52;14.57;;;;;;;;;;5069222;28;20032;-63
2023/05/08 05:07:00;;;;;;;21.35;15.20;;;;;;;;;;5069807;28;20024;-64
2023/05/08 05:09:25;;;;;;;19.05;14.77;;;;;;;;;;5071292;28;20029;-62
2023/05/08 05:11:51;;;;;;;17.67;14.10;;;;;;;;;;5070604;28;20037;-63
2023/05/08 05:14:16;;;;;;;19.98;15.45;;;;;;;;;;5062604;28;20044;-63
2023/05/08 05:16:41;;;;;;;17.52;14.15;;;;;;;;;;5084766;28;20115;-63
2023/05/08 05:19:07;;;;;;;18.25;14.63;;;;;;;;;;5087302;28;20059;-63
2023/05/08 05:21:32;;;;;;;18.70;14.73;;;;;;;;;;5072254;28;20070;-63
2023/05/08 05:23:58;;;;;;;19.13;14.48;;;;;;;;;;5070125;28;20135;-64
2023/05/08 05:26:23;;;;;;;18.85;14.85;;;;;;;;;;5073139;28;20029;-64
2023/05/08 05:28:49;;;;;;;18.42;14.68;;;;;;;;;;5074932;28;20457;-63
2023/05/08 05:31:14;;;;;;;21.75;14.63;;;;;;;;;;5073668;28;20635;-65
2023/05/08 05:33:39;;;;;;;18.77;14.70;;;;;;;;;;5074489;28;20125;-64
2023/05/08 05:36:06;;;;;;;22.55;15.25;;;;;;;;;;5072514;28;20036;-63
2023/05/08 05:38:32;;;;;;;18.77;13.82;;;;;;;;;;5053759;28;20056;-63
2023/05/08 05:40:57;;;;;;;17.10;14.20;;;;;;;;;;5066909;28;20037;-63
2023/05/08 05:43:22;;;;;;;18.65;14.38;;;;;;;;;;5043496;28;20040;-64
2023/05/08 05:45:48;;;;;;;18.42;14.05;;;;;;;;;;5071733;28;20507;-66
2023/05/08 05:48:13;;;;;;;17.88;14.00;;;;;;;;;;5073236;28;20020;-63
2023/05/08 05:50:39;;;;;;;17.20;13.25;;;;;;;;;;5073886;28;20044;-62
2023/05/08 05:53:04;;;;;;;16.17;13.10;;;;;;;;;;5071469;28;20451;-64
2023/05/08 05:55:30;;;;;;;17.15;13.82;;;;;;;;;;5072789;28;20036;-63
2023/05/08 05:57:55;;;;;;;18.27;14.25;;;;;;;;;;5073349;28;20385;-65
2023/05/08 06:00:21;;;;;;;16.63;13.82;;;;;;;;;;5069906;28;20060;-61
2023/05/08 06:02:47;;;;;;;16.80;13.52;;;;;;;;;;5069449;28;20032;-62
2023/05/08 06:05:12;;;;;;;16.63;13.45;;;;;;;;;;5058891;28;20093;-62
2023/05/08 06:07:38;;;;;;;18.98;14.05;;;;;;;;;;5072173;28;21963;-62
2023/05/08 06:10:04;;;;;;;15.75;13.02;;;;;;;;;;5072801;28;20068;-63
2023/05/08 06:12:30;;;;;;;16.40;13.35;;;;;;;;;;5073063;28;20029;-63
2023/05/08 06:14:55;;;;;;;16.60;12.85;;;;;;;;;;5070105;28;20366;-63
2023/05/08 06:17:21;;;;;;;18.58;13.52;;;;;;;;;;5072897;28;20024;-64
2023/05/08 06:19:49;;;;;;;16.60;13.52;;;;;;;;;;5069078;28;20074;-64
2023/05/08 06:22:17;;;;;;;18.05;13.48;;;;;;;;;;5070009;28;20024;-65
2023/05/08 06:24:42;;;;;;;17.67;13.50;;;;;;;;;;5071643;28;20033;-62
2023/05/08 06:27:08;;;;;;;19.40;13.65;;;;;;;;;;5068442;28;20043;-62
2023/05/08 06:29:34;;;;;;;19.90;13.90;;;;;;;;;;5070521;28;20028;-64
2023/05/08 06:31:59;;;;;;;15.93;13.10;;;;;;;;;;5061327;28;20174;-63
2023/05/08 06:34:25;;;;;;;17.67;14.20;;;;;;;;;;5054203;28;20116;-65
2023/05/08 06:36:50;;;;;;;18.50;13.88;;;;;;;;;;5071648;28;20048;-64
2023/05/08 06:39:15;;;;;;;18.10;13.52;;;;;;;;;;5072043;28;20111;-62
2023/05/08 06:41:41;;;;;;;17.52;13.48;;;;;;;;;;5072488;28;20039;-61
2023/05/08 06:44:06;;;;;;;15.52;13.02;;;;;;;;;;5069523;28;20024;-65
2023/05/08 06:46:32;;;;;;;16.88;13.75;;;;;;;;;;5072961;28;20024;-64
2023/05/08 06:48:57;;;;;;;16.65;13.23;;;;;;;;;;5072762;28;20033;-64
2023/05/08 06:51:23;;;;;;;20.02;13.27;;;;;;;;;;5072394;28;20437;-65
2023/05/08 06:53:48;;;;;;;17.75;13.18;;;;;;;;;;5071577;28;20029;-65
2023/05/08 06:56:13;;;;;;;19.48;12.93;;;;;;;;;;5071875;28;20473;-63
2023/05/08 06:58:39;;;;;;;17.83;13.55;;;;;;;;;;5071720;28;20041;-62
2023/05/08 07:01:04;;;;;;;18.13;13.60;;;;;;;;;;5071568;28;20121;-63
2023/05/08 07:03:30;;;;;;;16.55;13.82;;;;;;;;;;5071194;28;20028;-64
2023/05/08 07:05:55;;;;;;;18.85;13.20;;;;;;;;;;5067800;28;20462;-63
2023/05/08 07:08:20;;;;;;;20.40;13.43;;;;;;;;;;5052656;28;20363;-63
2023/05/08 07:10:46;;;;;;;16.50;13.05;;;;;;;;;;5051087;28;20120;-64
2023/05/08 07:13:11;;;;;;;16.95;13.32;;;;;;;;;;5051602;28;20021;-65
2023/05/08 07:15:37;;;;;;;15.02;12.80;;;;;;;;;;5054737;28;20128;-65
2023/05/08 07:18:03;;;;;;;15.75;13.15;;;;;;;;;;5070608;28;20039;-64
2023/05/08 07:20:29;;;;;;;17.02;14.10;;;;;;;;;;5072072;28;20519;-66
2023/05/08 07:22:55;;;;;;;16.67;12.95;;;;;;;;;;5072096;28;20032;-65
2023/05/08 07:25:21;;;;;;;19.00;13.43;;;;;;;;;;5061924;28;20064;-64
2023/05/08 07:27:46;;;;;;;16.77;12.82;;;;;;;;;;5052399;28;20075;-66
2023/05/08 07:30:12;;;;;;;17.00;13.02;;;;;;;;;;5064322;28;20043;-63
2023/05/08 07:32:38;;;;;;;16.70;12.50;;;;;;;;;;5071717;28;20028;-64
2023/05/08 07:35:05;;;;;;;15.63;12.50;;;;;;;;;;5071268;28;20025;-64
2023/05/08 07:37:31;;;;;;;17.55;12.73;;;;;;;;;;5070015;28;20120;-65
2023/05/08 07:39:57;;;;;;;16.35;12.82;;;;;;;;;;5071657;28;20123;-63
2023/05/08 07:42:22;;;;;;;17.77;13.43;;;;;;;;;;5067653;28;20115;-65
2023/05/08 07:44:48;;;;;;;17.80;12.63;;;;;;;;;;5071876;28;20067;-63
2023/05/08 07:47:13;;;;;;;18.10;13.25;;;;;;;;;;5060266;28;20037;-61
2023/05/08 07:49:38;;;;;;;18.88;13.18;;;;;;;;;;5062290;28;20082;-61
2023/05/08 07:52:04;;;;;;;17.02;13.05;;;;;;;;;;5057459;28;20025;-65
2023/05/08 07:54:29;;;;;;;20.40;13.73;;;;;;;;;;5069013;28;20492;-63
2023/05/08 07:56:54;;;;;;;15.55;12.13;;;;;;;;;;5071808;28;20036;-62
2023/05/08 07:59:20;;;;;;;19.38;11.40;;;;;;;;;;5070901;28;20254;-64
2023/05/08 08:01:46;;;;;;;17.73;11.43;;;;;;;;;;5070309;28;20062;-63
2023/05/08 08:04:14;;;;;;;15.35;11.00;;;;;;;;;;5065081;28;20024;-63
2023/05/08 08:06:40;;;;;;;18.73;11.13;;;;;;;;;;5071607;28;20029;-64
2023/05/08 08:09:05;;;;;;;13.65;10.52;;;;;;;;;;5069349;28;20032;-65
2023/05/08 08:11:31;;;;;;;15.38;11.25;;;;;;;;;;5070625;28;20036;-65
2023/05/08 08:13:56;;;;;;;13.45;11.07;;;;;;;;;;5064567;28;20025;-65
2023/05/08 08:16:21;;;;;;;16.27;11.15;;;;;;;;;;5050806;28;20492;-66
2023/05/08 08:18:47;;;;;;;15.57;10.27;;;;;;;;;;5054609;28;20032;-65
2023/05/08 08:21:12;;;;;;;18.05;10.15;;;;;;;;;;5070741;28;20319;-63
2023/05/08 08:23:37;;;;;;;13.57;9.75;;;;;;;;;;5055770;28;20029;-65
2023/05/08 08:26:03;;;;;;;13.10;9.48;;;;;;;;;;5056177;28;20523;-63
2023/05/08 08:28:28;;;;;;;12.75;9.70;;;;;;;;;;5070354;28;20037;-64
2023/05/08 08:30:54;;;;;;;14.00;9.20;;;;;;;;;;5059447;28;20035;-64
2023/05/08 08:33:20;;;;;;;14.52;9.10;;;;;;;;;;5053566;28;20028;-63
2023/05/08 08:35:45;;;;;;;13.25;9.40;;;;;;;;;;5070302;28;20036;-64
2023/05/08 08:38:10;;;;;;;16.00;9.73;;;;;;;;;;5069320;28;20083;-65
2023/05/08 08:40:40;;;;;;;10.90;7.97;;;;;;;;;;5070970;28;20033;-63
2023/05/08 08:43:06;;;;;;;11.35;7.85;;;;;;;;;;5065338;28;20032;-63
2023/05/08 08:45:31;;;;;;;10.25;7.15;;;;;;;;;;5070125;28;20032;-64
2023/05/08 08:48:00;;;;;;;8.45;6.55;;;;;;;;;;5071280;28;20020;-65
2023/05/08 08:50:31;;;;;;;7.22;5.38;;;;;;;;;;5073664;28;20036;-62
2023/05/08 08:52:56;;;;;;;;;;;;;;;;;;5073952;28;20032;-64
2023/05/08 08:55:24;;;;;;;6.88;4.70;;;;;;;;;;5066979;28;19913;-65
2023/05/08 08:58:10;;;;;;;10.02;5.45;;;;;;;;;;5054743;28;20380;-64
2023/05/08 09:00:36;;;;;;;8.18;5.20;;;;;;;;;;5054960;28;20025;-64
2023/05/08 09:03:03;;;;;;;6.35;4.82;;;;;;;;;;5063392;28;20028;-64
2023/05/08 09:05:30;;;;;;;6.72;5.22;;;;;;;;;;5075098;28;20543;-65
2023/05/08 09:07:57;;;;;;;8.48;5.57;;;;;;;;;;5055132;28;20400;-64
2023/05/08 09:10:23;;;;;;;7.97;5.50;;;;;;;;;;5054035;28;20033;-65
2023/05/08 09:12:49;;;;;;;7.80;4.90;;;;;;;;;;5054514;28;20056;-65
2023/05/08 09:15:14;;;;;;;7.90;4.97;;;;;;;;;;5053792;28;20704;-64
2023/05/08 09:17:40;;;;;;;9.40;4.57;;;;;;;;;;5053904;28;20484;-65
2023/05/08 09:20:06;;;;;;;7.32;4.22;;;;;;;;;;5052665;28;20065;-64
2023/05/08 09:22:37;;;;;;;7.40;4.30;;;;;;;;;;5071031;28;20111;-64
2023/05/08 09:25:03;;;;;;;4.72;3.70;;;;;;;;;;5074156;28;20423;-63
2023/05/08 09:27:29;;;;;;;6.15;3.88;;;;;;;;;;5068122;28;20090;-65
2023/05/08 09:30:06;;;;;;;7.05;3.83;;;;;;;;;;5074320;28;20094;-63
2023/05/08 09:32:34;;;;;;;7.45;3.88;;;;;;;;;;5074572;28;20112;-65
2023/05/08 09:35:00;;;;;;;4.90;3.80;;;;;;;;;;5072741;28;20094;-64
2023/05/08 09:37:26;;;;;;;6.82;4.03;;;;;;;;;;5069663;28;20490;-66
2023/05/08 09:39:52;;;;;;;5.95;3.70;;;;;;;;;;5074171;28;20453;-63
2023/05/08 09:42:18;;;;;;;6.05;3.88;;;;;;;;;;5073213;28;20024;-64
2023/05/08 09:44:53;;;;;;;6.28;3.90;;;;;;;;;;5072671;28;20085;-65
2023/05/08 09:47:20;;;;;;;5.18;3.40;;;;;;;;;;5073116;28;20033;-65
2023/05/08 09:50:02;;;;;;;6.60;4.18;;;;;;;;;;5073480;28;20093;-62
2023/05/08 09:52:29;;;;;;;5.20;3.80;;;;;;;;;;5068237;28;20040;-65
2023/05/08 09:55:02;;;;;;;5.13;3.90;;;;;;;;;;5072625;28;20029;-63
2023/05/08 09:57:30;;;;;;;6.03;3.90;;;;;;;;;;5067289;28;20040;-67
2023/05/08 10:00:07;;;;;;;7.03;4.18;;;;;;;;;;5073140;28;20040;-64
2023/05/08 10:02:34;;;;;;;6.60;4.15;;;;;;;;;;5059771;28;20433;-62
2023/05/08 10:05:00;;;;;;;6.22;4.40;;;;;;;;;;5052509;28;20037;-65
2023/05/08 10:07:30;;;;;;;6.45;3.92;;;;;;;;;;5052897;28;20021;-65
2023/05/08 10:10:03;;;;;;;5.03;3.90;;;;;;;;;;5052421;28;20029;-65
2023/05/08 10:12:29;;;;;;;5.07;3.78;;;;;;;;;;5063762;28;20028;-65
2023/05/08 10:14:55;;;;;;;7.47;4.07;;;;;;;;;;5068504;28;20103;-63
2023/05/08 10:17:39;;;;;;;6.30;4.25;;;;;;;;;;5058929;28;20108;-62
2023/05/08 10:20:06;;;;;;;5.95;4.15;;;;;;;;;;5069747;28;20456;-62
2023/05/08 10:22:36;;;;;;;6.80;4.30;;;;;;;;;;5088396;28;20028;-62
2023/05/08 10:25:02;;;;;;;6.63;4.25;;;;;;;;;;5093620;28;20106;-63
2023/05/08 10:27:36;;;;;;;7.38;4.15;;;;;;;;;;5083918;28;20139;-62
2023/05/08 10:30:03;;;;;;;6.95;4.10;;;;;;;;;;5079516;28;20028;-62
2023/05/08 10:32:36;;;;;;;6.28;4.25;;;;;;;;;;5052332;28;20064;-62
2023/05/08 10:35:04;;;;;;;5.47;3.80;;;;;;;;;;5053152;28;20037;-62
2023/05/08 10:37:30;;;;;;;6.72;4.38;;;;;;;;;;5051764;28;20045;-63
2023/05/08 10:39:57;;;;;;;6.30;4.15;;;;;;;;;;5052728;28;20032;-63
2023/05/08 10:42:23;;;;;;;6.97;3.90;;;;;;;;;;5052077;28;20029;-62
2023/05/08 10:44:49;;;;;;;7.28;4.05;;;;;;;;;;5069049;28;20028;-61
2023/05/08 10:47:53;;;;;;;6.80;4.28;;;;;;;;;;5065493;28;20043;-62
2023/05/08 10:50:46;;;;;;;5.65;3.83;;;;;;;;;;5052281;28;20047;-63
2023/05/08 10:53:30;;;;;;;4.80;4.00;;;;;;;;;;5057676;28;20036;-64
2023/05/08 10:55:55;;;;;;;5.65;3.90;;;;;;;;;;5062903;28;20106;-65
2023/05/08 10:58:32;;;;;;;7.90;3.75;;;;;;;;;;5052073;28;20461;-67
2023/05/08 11:01:05;;;;;;;5.22;3.58;;;;;;;;;;5052558;28;20043;-65
2023/05/08 11:03:36;;;;;;;4.82;3.65;;;;;;;;;;5063004;28;20025;-66
2023/05/08 11:06:02;;;;;;;4.75;3.63;;;;;;;;;;5072650;28;20039;-65
2023/05/08 11:08:29;;;;;;;7.15;3.80;;;;;;;;;;5062841;28;20028;-65
2023/05/08 11:13:32;;;;;;;5.65;4.00;;;;;;;;;;5052006;28;20066;-67
2023/05/08 11:15:58;;;;;;;6.35;3.78;;;;;;;;;;5052402;28;20082;-66
2023/05/08 11:18:24;;;;;;;5.88;4.03;;;;;;;;;;5051614;28;20033;-68
2023/05/08 11:20:58;;;;;;;5.80;3.55;;;;;;;;;;5063844;28;20090;-68
2023/05/08 11:23:26;;;;;;;4.55;3.50;;;;;;;;;;5071183;28;20111;-66
2023/05/08 11:26:21;;;;;;;5.47;3.90;;;;;;;;;;5072116;28;20028;-66
2023/05/08 11:28:53;;;;;;;7.13;3.90;;;;;;;;;;5070992;28;20500;-66
2023/05/08 11:31:19;;;;;;;5.18;4.00;;;;;;;;;;5054756;28;20029;-63
2023/05/08 11:33:44;;;;;;;5.60;3.90;;;;;;;;;;5068491;28;20025;-63
2023/05/08 11:36:21;;;;;;;7.28;4.00;;;;;;;;;;5069419;28;20107;-67
2023/05/08 11:39:12;;;;;;;6.55;3.95;;;;;;;;;;5067544;28;20040;-65
2023/05/08 11:41:40;;;;;;;5.65;4.10;;;;;;;;;;5071599;28;20443;-64
2023/05/08 11:44:19;;;;;;;5.53;4.05;;;;;;;;;;5075568;28;20436;-67
2023/05/08 11:46:50;;;;;;;6.35;3.90;;;;;;;;;;5092029;28;20434;-62
2023/05/08 11:49:17;;;;;;;5.40;3.50;;;;;;;;;;5073815;28;20111;-64
2023/05/08 11:51:44;;;;;;;5.90;3.85;;;;;;;;;;5089483;28;20468;-67
2023/05/08 11:54:17;;;;;;;4.93;3.90;;;;;;;;;;5087614;28;20438;-68
2023/05/08 11:56:44;;;;;;;4.82;4.13;;;;;;;;;;5091523;28;20451;-64
2023/05/08 11:59:10;;;;;;;8.90;4.20;;;;;;;;;;5069585;28;20162;-67
2023/05/08 12:01:36;;;;;;;6.00;3.80;;;;;;;;;;5069757;28;20119;-64
2023/05/08 12:04:06;;;;;;;5.55;3.60;;;;;;;;;;5071072;28;20025;-66
2023/05/08 12:06:33;;;;;;;5.30;3.45;;;;;;;;;;5061773;28;20052;-64
2023/05/08 12:08:59;;;;;;;6.45;3.60;;;;;;;;;;5052991;28;20040;-64
2023/05/08 12:11:25;;;;;;;6.70;4.00;;;;;;;;;;5059833;28;20064;-65
2023/05/08 12:13:51;;;;;;;5.13;3.50;;;;;;;;;;5071474;28;20059;-65
2023/05/08 12:16:17;;;;;;;6.82;3.40;;;;;;;;;;5064598;28;20509;-67
2023/05/08 12:18:43;;;;;;;6.53;3.17;;;;;;;;;;5054970;28;20107;-66
2023/05/08 12:21:10;;;;;;;5.05;3.05;;;;;;;;;;5070212;28;20122;-67
2023/05/08 12:23:35;;;;;;;4.60;2.90;;;;;;;;;;5068955;28;20104;-67
2023/05/08 12:26:01;;;;;;;3.85;2.80;;;;;;;;;;5055407;28;20433;-67
2023/05/08 12:28:27;;;;;;;3.38;2.50;;;;;;;;;;5061857;28;20036;-68
2023/05/08 12:30:52;;;;;;;3.17;2.45;;;;;;;;;;5068305;28;20033;-67
2023/05/08 12:33:19;;;;;;;4.15;2.40;;;;;;;;;;5054663;28;20043;-69
2023/05/08 12:35:45;;;;;;;4.60;2.70;;;;;;;;;;5074863;28;20485;-66
2023/05/08 12:38:10;;;;;;;3.65;2.50;;;;;;;;;;5075297;28;20057;-75
2023/05/08 12:40:41;;;;;;;4.00;2.20;;;;;;;;;;5072904;28;20036;-67
2023/05/08 12:43:07;;;;;;;3.42;2.20;;;;;;;;;;5061937;28;20041;-67
2023/05/08 12:45:37;;;;;;;2.67;1.90;;;;;;;;;;5058586;28;20036;-68
2023/05/08 12:48:04;;;;;;;4.72;2.20;;;;;;;;;;5054798;28;20033;-68
2023/05/08 12:50:48;;;;;;;4.28;2.20;;;;;;;;;;5054318;28;20654;-66
2023/05/08 12:53:17;;;;;;;3.38;2.05;;;;;;;;;;5057463;28;20115;-68
2023/05/08 12:55:54;;;;;;;2.97;2.00;;;;;;;;;;5073662;28;20141;-63
2023/05/08 12:58:24;;;;;;;6.18;2.20;;;;;;;;;;5057876;28;20041;-63
2023/05/08 13:00:52;;;;;;;2.38;1.98;;;;;;;;;;5068583;28;20040;-70
2023/05/08 13:03:28;;;;;;;2.42;1.95;;;;;;;;;;5052916;28;20079;-66
2023/05/08 13:05:55;;;;;;;3.00;2.30;;;;;;;;;;5054557;28;20025;-65
2023/05/08 13:08:36;;;;;;;2.63;2.05;;;;;;;;;;5061247;28;20033;-67
2023/05/08 13:11:04;;;;;;;2.97;2.08;;;;;;;;;;5062797;28;20116;-64
2023/05/08 13:13:34;;;;;;;3.90;2.13;;;;;;;;;;5053993;28;20072;-65
2023/05/08 13:16:04;;;;;;;3.35;2.35;;;;;;;;;;5072326;28;20041;-65
2023/05/08 13:18:30;;;;;;;3.70;2.38;;;;;;;;;;5070826;28;20028;-64
2023/05/08 13:20:55;;;;;;;4.22;2.55;;;;;;;;;;5058353;28;20366;-65
2023/05/08 13:23:22;;;;;;;3.78;2.63;;;;;;;;;;5073644;28;20025;-65
2023/05/08 13:25:48;;;;;;;6.97;2.50;;;;;;;;;;5074110;28;20051;-64
2023/05/08 13:28:13;;;;;;;3.63;2.50;;;;;;;;;;5067194;28;20033;-67
2023/05/08 13:30:39;;;;;;;3.35;2.60;;;;;;;;;;5053727;28;20496;-64
2023/05/08 13:33:05;;;;;;;3.45;2.63;;;;;;;;;;5063173;28;20173;-66
2023/05/08 13:35:31;;;;;;;3.63;2.50;;;;;;;;;;5071560;28;20036;-64
2023/05/08 13:37:57;;;;;;;4.57;2.65;;;;;;;;;;5073713;28;20045;-64
2023/05/08 13:40:23;;;;;;;3.50;2.70;;;;;;;;;;5073161;28;20094;-64
2023/05/08 13:42:49;;;;;;;3.83;3.15;;;;;;;;;;5074067;28;20037;-64
2023/05/08 13:45:15;;;;;;;4.47;3.10;;;;;;;;;;5072160;28;20043;-67
2023/05/08 13:47:41;;;;;;;4.57;3.15;;;;;;;;;;5073752;28;20032;-64
2023/05/08 13:50:08;;;;;;;3.95;2.90;;;;;;;;;;5073964;28;20039;-66
2023/05/08 13:52:34;;;;;;;4.45;3.20;;;;;;;;;;5072395;28;20035;-65
2023/05/08 13:54:59;;;;;;;4.85;3.25;;;;;;;;;;5073383;28;20041;-66
2023/05/08 13:57:25;;;;;;;7.72;3.05;;;;;;;;;;5060233;28;20032;-68
2023/05/08 13:59:50;;;;;;;4.90;3.35;;;;;;;;;;5057694;28;20065;-67
2023/05/08 14:02:16;;;;;;;5.00;3.22;;;;;;;;;;5066019;28;20090;-69
2023/05/08 14:04:42;;;;;;;5.10;3.78;;;;;;;;;;5072900;28;20104;-65
2023/05/08 14:07:07;;;;;;;5.10;3.40;;;;;;;;;;5052933;28;20036;-67
2023/05/08 14:09:33;;;;;;;4.30;3.20;;;;;;;;;;5064055;28;20784;-63
2023/05/08 14:11:58;;;;;;;5.40;3.85;;;;;;;;;;5073809;28;20028;-62
2023/05/08 14:14:24;;;;;;;5.70;3.60;;;;;;;;;;5072412;28;20033;-62
2023/05/08 14:16:50;;;;;;;5.72;3.70;;;;;;;;;;5070409;28;20040;-62
2023/05/08 14:19:16;;;;;;;5.25;3.60;;;;;;;;;;5073001;28;20029;-65
2023/05/08 14:21:43;;;;;;;4.40;3.80;;;;;;;;;;5071818;28;20036;-62
2023/05/08 14:24:09;;;;;;;4.88;4.00;;;;;;;;;;5068223;28;20083;-63
2023/05/08 14:26:34;;;;;;;6.28;3.80;;;;;;;;;;5083933;28;20035;-63
2023/05/08 14:28:59;;;;;;;4.80;3.92;;;;;;;;;;5085874;28;20028;-63
2023/05/08 14:31:25;;;;;;;5.20;3.65;;;;;;;;;;5072455;28;20062;-62
2023/05/08 14:33:50;;;;;;;6.32;3.88;;;;;;;;;;5066706;28;20475;-63
2023/05/08 14:36:16;;;;;;;5.35;4.00;;;;;;;;;;5052720;28;20094;-65
2023/05/08 14:38:41;;;;;;;5.97;4.20;;;;;;;;;;5054578;28;20439;-62